Portada
METAR-TAF:

METAR-TAF

Aeroports :

Bíldudalur, Islàndia

latitud: 65-38-30N, longitud: 23-32-45W, altitud: 8 m

Observació

L'informe es va fer fa 9 hores i 12 minuts, a les 16:00 UTC
Vent 32 kt del Sud/Sud-Oest amb ràfegues de 42 kt
Temperatura 6°C
Humitat 81%
Pressió 996 hPa
Visibilitat 10 km o més
Núvols disperses a una alçada de 1800 ft
Cel cobert a una alçada de 2800 ft
pluja

METAR: BIBD 171600Z 20032G42KT 9999 RA SCT018 OVC028 06/03 Q0996

Hora: 01:12 (01:12 UTC)

Pronòstic

L'informe es va fer fa 9 hores i 1 minuts, a les 16:11 UTC
Pronòstic vàlid del 17 a les 17 UTC al 18 a les 02 UTC
Vent 36 kt del Sud/Sud-Oest amb ràfegues de 46 kt
Visibilitat: 7000 m
Núvols disperses a una alçada de 1500 ft
Cel cobert a una alçada de 2000 ft
pluja
Evolucionant progressivament
l' 17 a les 18 UTC al 17 a les 20 UTC
Vent 25 kt del Sud/Sud-Oest

TAF: BIBD 171611Z 1717/1802 20036G46KT 7000 RA SCT015 OVC020 BECMG 1718/1720 20025KT

Observacions i pronòstics meteorològics de més de 4000 aeroports (METAR i TAF).

Les estacions disponibles són els punts grocs i vermells al mapa.

Posi el ratolí al punt desitjat per veure el nom de l'estació.

Feu clic per veure les observacions i els pronòstics meteorològics.

Per canviar el mapa: feu clic els botons verds amb una creu de color negre per apropar; al botó verd amb un guió per allunyar la imatge; o en les fletxes verdes per a mapes adjacents.


METAR-TAF: